createdAt,value
2018-11-03T00:00:50.384Z,9.00
2018-11-03T00:03:18.835Z,6.37
2018-11-03T00:05:47.256Z,7.87
2018-11-03T00:08:15.702Z,7.63
2018-11-03T00:10:44.142Z,7.30
2018-11-03T00:13:12.565Z,5.50
2018-11-03T00:15:40.983Z,11.53
2018-11-03T00:18:09.423Z,8.57
2018-11-03T00:20:38.016Z,11.03
2018-11-03T00:23:07.010Z,7.37
2018-11-03T00:25:35.461Z,7.57
2018-11-03T00:28:03.860Z,8.20
2018-11-03T00:30:32.295Z,12.43
2018-11-03T00:33:00.787Z,8.33
2018-11-03T00:35:29.381Z,8.30
2018-11-03T00:37:57.883Z,7.93
2018-11-03T00:40:26.302Z,10.03
2018-11-03T00:42:54.769Z,7.40
2018-11-03T00:45:23.132Z,7.77
2018-11-03T00:47:51.532Z,11.23
2018-11-03T00:50:19.936Z,8.63
2018-11-03T00:52:48.356Z,6.20
2018-11-03T00:55:16.982Z,8.30
2018-11-03T00:57:45.680Z,8.47
2018-11-03T01:00:15.518Z,9.83
2018-11-03T01:02:45.097Z,8.00
2018-11-03T01:05:13.656Z,8.90
2018-11-03T01:07:42.540Z,12.97
2018-11-03T01:10:11.082Z,7.10
2018-11-03T01:12:40.256Z,7.40
2018-11-03T01:15:11.250Z,8.60
2018-11-03T01:17:39.976Z,9.50
2018-11-03T01:20:09.299Z,9.77
2018-11-03T01:22:37.823Z,9.83
2018-11-03T01:25:06.424Z,9.90
2018-11-03T01:27:34.836Z,8.27
2018-11-03T01:30:03.354Z,11.07
2018-11-03T01:32:31.827Z,9.03
2018-11-03T01:35:00.168Z,7.97
2018-11-03T01:37:28.586Z,8.63
2018-11-03T01:39:56.999Z,7.97
2018-11-03T01:42:25.397Z,7.93
2018-11-03T01:44:54.043Z,10.23
2018-11-03T01:47:22.466Z,10.00
2018-11-03T01:49:50.896Z,7.20
2018-11-03T01:52:19.548Z,9.17
2018-11-03T01:54:48.107Z,6.93
2018-11-03T01:57:16.505Z,9.47
2018-11-03T01:59:44.931Z,12.63
2018-11-03T02:02:13.363Z,14.30
2018-11-03T02:04:41.756Z,23.23
2018-11-03T02:07:10.190Z,17.53
2018-11-03T02:09:38.584Z,14.43
2018-11-03T02:12:06.993Z,14.03
2018-11-03T02:14:35.427Z,15.27
2018-11-03T02:17:03.825Z,13.67
2018-11-03T02:19:32.240Z,16.40
2018-11-03T02:22:00.663Z,14.50
2018-11-03T02:24:29.063Z,16.30
2018-11-03T02:26:57.685Z,13.80
2018-11-03T02:29:26.185Z,11.37
2018-11-03T02:31:54.588Z,11.77
2018-11-03T02:34:22.976Z,11.33
2018-11-03T02:36:51.393Z,9.27
2018-11-03T02:39:19.792Z,11.50
2018-11-03T02:41:48.188Z,9.87
2018-11-03T02:44:16.633Z,10.77
2018-11-03T02:46:45.484Z,9.93
2018-11-03T02:49:13.979Z,8.70
2018-11-03T02:51:42.406Z,10.63
2018-11-03T02:54:10.811Z,9.80
2018-11-03T02:56:39.208Z,12.90
2018-11-03T02:59:07.840Z,10.80
2018-11-03T03:01:36.327Z,11.67
2018-11-03T03:04:05.065Z,13.23
2018-11-03T03:06:33.468Z,10.80
2018-11-03T03:09:01.879Z,10.37
2018-11-03T03:11:30.289Z,16.50
2018-11-03T03:13:58.711Z,18.60
2018-11-03T03:16:27.134Z,17.93
2018-11-03T03:18:55.540Z,17.13
2018-11-03T03:21:23.948Z,16.03
2018-11-03T03:23:52.431Z,14.87
2018-11-03T03:26:20.831Z,15.93
2018-11-03T03:28:49.252Z,13.83
2018-11-03T03:31:17.659Z,13.67
2018-11-03T03:33:46.092Z,17.63
2018-11-03T03:36:14.531Z,14.60
2018-11-03T03:38:43.166Z,14.73
2018-11-03T03:41:11.925Z,13.97
2018-11-03T03:43:40.419Z,12.20
2018-11-03T03:46:08.820Z,11.90
2018-11-03T03:48:37.211Z,13.63
2018-11-03T03:51:05.647Z,13.10
2018-11-03T03:53:34.059Z,12.33
2018-11-03T03:56:02.456Z,12.10
2018-11-03T03:58:30.884Z,12.00
2018-11-03T04:00:59.501Z,15.60
2018-11-03T04:03:28.000Z,15.23
2018-11-03T04:05:56.424Z,14.67
2018-11-03T04:08:24.816Z,12.43
2018-11-03T04:10:53.215Z,13.33
2018-11-03T04:13:21.628Z,12.87
2018-11-03T04:15:50.037Z,12.17
2018-11-03T04:18:18.444Z,11.73
2018-11-03T04:20:46.884Z,12.90
2018-11-03T04:23:15.287Z,13.03
2018-11-03T04:25:44.107Z,14.53
2018-11-03T04:28:12.614Z,16.40
2018-11-03T04:30:41.010Z,13.87
2018-11-03T04:33:09.426Z,16.67
2018-11-03T04:35:37.847Z,15.37
2018-11-03T04:38:06.253Z,13.57
2018-11-03T04:40:34.869Z,14.63
2018-11-03T04:43:03.629Z,15.70
2018-11-03T04:45:32.182Z,13.53
2018-11-03T04:48:00.507Z,13.73
2018-11-03T04:50:28.940Z,16.90
2018-11-03T04:52:57.369Z,15.17
2018-11-03T04:55:25.777Z,16.10
2018-11-03T04:57:54.237Z,14.73
2018-11-03T05:00:22.635Z,17.40
2018-11-03T05:02:51.255Z,15.33
2018-11-03T05:05:19.984Z,10.60
2018-11-03T05:07:48.471Z,15.20
2018-11-03T05:10:16.934Z,13.30
2018-11-03T05:12:45.278Z,10.00
2018-11-03T05:15:13.901Z,13.00
2018-11-03T05:17:42.399Z,14.80
2018-11-03T05:20:10.817Z,13.83
2018-11-03T05:22:39.219Z,11.90
2018-11-03T05:25:07.627Z,13.67
2018-11-03T05:27:36.047Z,14.00
2018-11-03T05:30:04.478Z,19.30
2018-11-03T05:32:32.896Z,19.43
2018-11-03T05:35:01.562Z,16.83
2018-11-03T05:37:30.048Z,14.47
2018-11-03T05:39:58.468Z,18.50
2018-11-03T05:42:26.881Z,18.73
2018-11-03T05:44:55.332Z,18.80
2018-11-03T05:47:23.690Z,16.53
2018-11-03T05:49:52.109Z,16.13
2018-11-03T05:52:20.525Z,17.93
2018-11-03T05:54:49.182Z,15.60
2018-11-03T05:57:17.687Z,17.70
2018-11-03T05:59:46.111Z,16.20
2018-11-03T06:02:14.544Z,14.87
2018-11-03T06:04:43.192Z,20.20
2018-11-03T06:07:11.686Z,18.97
2018-11-03T06:09:40.110Z,18.07
2018-11-03T06:12:08.532Z,17.03
2018-11-03T06:14:36.948Z,19.07
2018-11-03T06:17:05.700Z,19.70
2018-11-03T06:19:34.208Z,16.80
2018-11-03T06:22:02.634Z,15.53
2018-11-03T06:24:31.036Z,14.77
2018-11-03T06:26:59.465Z,16.50
2018-11-03T06:29:27.879Z,21.43
2018-11-03T06:31:56.284Z,20.37
2018-11-03T06:34:24.720Z,18.03
2018-11-03T06:36:53.331Z,19.50
2018-11-03T06:39:22.026Z,16.73
2018-11-03T06:41:50.515Z,20.97
2018-11-03T06:44:18.907Z,16.97
2018-11-03T06:46:47.525Z,16.00
2018-11-03T06:49:19.819Z,16.40
2018-11-03T06:51:49.061Z,16.90
2018-11-03T06:54:17.463Z,18.90
2018-11-03T06:56:45.835Z,16.90
2018-11-03T06:59:14.476Z,16.70
2018-11-03T07:01:42.871Z,14.43
2018-11-03T07:04:11.273Z,15.90
2018-11-03T07:06:39.683Z,14.43
2018-11-03T07:09:08.691Z,17.53
2018-11-03T07:11:37.730Z,21.67
2018-11-03T07:14:05.964Z,22.83
2018-11-03T07:16:34.583Z,18.10
2018-11-03T07:19:02.968Z,19.87
2018-11-03T07:21:36.449Z,22.07
2018-11-03T07:24:04.842Z,21.80
2018-11-03T07:26:33.227Z,19.30
2018-11-03T07:29:01.647Z,18.07
2018-11-03T07:31:30.076Z,19.50
2018-11-03T07:33:58.668Z,17.77
2018-11-03T07:36:27.056Z,20.70
2018-11-03T07:38:55.487Z,20.90
2018-11-03T07:41:24.228Z,17.87
2018-11-03T07:43:52.693Z,17.97
2018-11-03T07:46:22.506Z,18.03
2018-11-03T07:48:51.058Z,18.67
2018-11-03T07:51:19.326Z,18.43
2018-11-03T07:53:47.783Z,17.23
2018-11-03T07:56:16.175Z,21.40
2018-11-03T07:58:44.579Z,18.93
2018-11-03T08:01:12.992Z,19.10
2018-11-03T08:03:41.405Z,15.87
2018-11-03T08:06:09.811Z,17.60
2018-11-03T08:08:38.264Z,16.10
2018-11-03T08:11:06.693Z,16.10
2018-11-03T08:13:35.065Z,19.30
2018-11-03T08:16:03.502Z,14.87
2018-11-03T08:18:33.724Z,17.23
2018-11-03T08:21:02.128Z,16.53
2018-11-03T08:23:30.540Z,18.03
2018-11-03T08:25:59.175Z,17.17
2018-11-03T08:28:27.655Z,18.63
2018-11-03T08:30:56.103Z,18.80
2018-11-03T08:33:24.491Z,17.03
2018-11-03T08:35:52.902Z,16.40
2018-11-03T08:38:21.584Z,14.80
2018-11-03T08:40:50.027Z,14.90
2018-11-03T08:43:18.446Z,14.53
2018-11-03T08:45:46.851Z,12.83
2018-11-03T08:48:15.328Z,14.33
2018-11-03T08:50:43.710Z,16.53
2018-11-03T08:53:12.111Z,15.97
2018-11-03T08:55:40.508Z,17.00
2018-11-03T08:58:08.921Z,14.47
2018-11-03T09:00:37.359Z,14.97
2018-11-03T09:03:05.960Z,14.27
2018-11-03T09:05:34.444Z,13.07
2018-11-03T09:08:02.864Z,12.20
2018-11-03T09:10:31.259Z,14.87
2018-11-03T09:13:00.150Z,17.00
2018-11-03T09:15:28.671Z,10.10
2018-11-03T09:17:57.336Z,7.60
2018-11-03T09:20:25.828Z,10.40
2018-11-03T09:22:54.248Z,8.03
2018-11-03T09:25:22.661Z,7.93
2018-11-03T09:27:51.070Z,7.23
2018-11-03T09:30:19.936Z,8.83
2018-11-03T09:32:48.407Z,8.80
2018-11-03T09:35:17.179Z,7.53
2018-11-03T09:37:45.904Z,9.60
2018-11-03T09:40:15.669Z,7.10
2018-11-03T09:42:45.193Z,8.73
2018-11-03T09:45:14.183Z,8.33
2018-11-03T09:47:43.127Z,7.47
2018-11-03T09:50:13.226Z,6.53
2018-11-03T09:52:42.157Z,7.07
2018-11-03T09:55:12.518Z,6.23
2018-11-03T09:57:41.303Z,6.50
2018-11-03T10:00:12.867Z,9.37
2018-11-03T10:02:41.556Z,9.73
2018-11-03T10:05:11.407Z,8.23
2018-11-03T10:07:39.950Z,6.87
2018-11-03T10:10:12.203Z,6.07
2018-11-03T10:12:40.911Z,8.83
2018-11-03T10:15:10.025Z,5.00
2018-11-03T10:17:39.325Z,6.83
2018-11-03T10:20:08.251Z,6.30
2018-11-03T10:22:37.069Z,9.47
2018-11-03T10:25:08.564Z,6.53
2018-11-03T10:27:37.302Z,5.83
2018-11-03T10:30:07.420Z,6.17
2018-11-03T10:32:36.172Z,7.27
2018-11-03T10:35:04.768Z,7.60
2018-11-03T10:37:33.211Z,6.43
2018-11-03T10:40:01.833Z,6.17
2018-11-03T10:42:30.404Z,5.93
2018-11-03T10:44:59.007Z,6.60
2018-11-03T10:47:27.628Z,5.70
2018-11-03T10:49:56.373Z,5.10
2018-11-03T10:52:25.096Z,5.97
2018-11-03T10:54:53.848Z,6.43
2018-11-03T10:57:22.429Z,4.63
2018-11-03T10:59:50.898Z,4.80
2018-11-03T11:02:24.856Z,5.87
2018-11-03T11:04:59.048Z,6.07
2018-11-03T11:07:33.263Z,5.87
2018-11-03T11:10:07.419Z,5.43
2018-11-03T11:12:41.631Z,4.93
2018-11-03T11:15:10.576Z,4.20
2018-11-03T11:17:39.184Z,6.03
2018-11-03T11:20:07.943Z,5.63
2018-11-03T11:22:36.392Z,4.90
2018-11-03T11:25:05.965Z,6.53
2018-11-03T11:27:34.451Z,5.60
2018-11-03T11:30:03.099Z,4.20
2018-11-03T11:32:31.588Z,5.07
2018-11-03T11:35:00.246Z,4.93
2018-11-03T11:37:28.737Z,4.80
2018-11-03T11:39:57.280Z,5.80
2018-11-03T11:42:26.075Z,3.93
2018-11-03T11:44:54.555Z,4.03
2018-11-03T11:47:22.947Z,5.57
2018-11-03T11:49:51.455Z,6.10
2018-11-03T11:52:20.081Z,5.40
2018-11-03T11:54:48.573Z,6.33
2018-11-03T11:57:17.187Z,6.93
2018-11-03T11:59:45.900Z,5.07
2018-11-03T12:02:14.908Z,3.37
2018-11-03T12:04:43.634Z,3.87
2018-11-03T12:07:12.256Z,5.80
2018-11-03T12:09:40.824Z,5.63
2018-11-03T12:12:09.219Z,5.20
2018-11-03T12:14:38.398Z,5.17
2018-11-03T12:17:06.795Z,3.97
2018-11-03T12:19:35.999Z,5.07
2018-11-03T12:22:04.442Z,5.20
2018-11-03T12:24:32.952Z,4.77
2018-11-03T12:27:02.085Z,3.80
2018-11-03T12:29:30.523Z,2.13
2018-11-03T12:31:59.179Z,3.03
2018-11-03T12:34:27.907Z,6.27
2018-11-03T12:36:56.471Z,4.90
2018-11-03T12:39:24.863Z,5.30
2018-11-03T12:41:58.551Z,4.57
2018-11-03T12:44:27.031Z,7.10
2018-11-03T12:46:55.660Z,4.73
2018-11-03T12:49:24.229Z,7.00
2018-11-03T12:51:52.712Z,5.47
2018-11-03T12:54:21.511Z,4.90
2018-11-03T12:56:50.000Z,6.13
2018-11-03T12:59:19.377Z,4.63
2018-11-03T13:01:48.266Z,3.07
2018-11-03T13:04:16.754Z,6.33
2018-11-03T13:06:45.376Z,4.57
2018-11-03T13:09:14.128Z,5.93
2018-11-03T13:11:42.615Z,4.13
2018-11-03T13:14:11.220Z,5.60
2018-11-03T13:16:39.923Z,4.57
2018-11-03T13:19:08.436Z,5.17
2018-11-03T13:21:36.824Z,3.77
2018-11-03T13:24:20.742Z,5.03
2018-11-03T13:26:49.408Z,6.43
2018-11-03T13:29:18.112Z,6.03
2018-11-03T13:31:46.631Z,3.87
2018-11-03T13:34:18.528Z,5.97
2018-11-03T13:36:46.984Z,2.60
2018-11-03T13:39:15.418Z,4.50
2018-11-03T13:41:44.104Z,7.60
2018-11-03T13:44:12.998Z,6.23
2018-11-03T13:46:41.427Z,9.17
2018-11-03T13:49:10.344Z,5.80
2018-11-03T13:51:38.780Z,4.13
2018-11-03T13:54:07.175Z,6.60
2018-11-03T13:56:35.626Z,5.03
2018-11-03T13:59:04.230Z,5.67
2018-11-03T14:01:32.716Z,6.93
2018-11-03T14:04:01.320Z,5.07
2018-11-03T14:06:30.025Z,4.43
2018-11-03T14:08:58.568Z,9.37
2018-11-03T14:11:27.116Z,4.63
2018-11-03T14:13:55.460Z,4.13
2018-11-03T14:16:24.096Z,6.50
2018-11-03T14:18:52.594Z,5.53
2018-11-03T14:21:21.243Z,7.63
2018-11-03T14:23:49.732Z,3.97
2018-11-03T14:26:18.335Z,9.30
2018-11-03T14:28:46.839Z,4.73
2018-11-03T14:31:15.496Z,5.60
2018-11-03T14:33:44.207Z,5.00
2018-11-03T14:36:12.694Z,7.87
2018-11-03T14:38:41.309Z,5.80
2018-11-03T14:41:10.024Z,5.47
2018-11-03T14:43:38.820Z,4.33
2018-11-03T14:46:07.223Z,7.87
2018-11-03T14:48:36.030Z,9.30
2018-11-03T14:51:05.141Z,6.00
2018-11-03T14:53:33.660Z,6.33
2018-11-03T14:56:02.226Z,7.70
2018-11-03T14:58:30.578Z,8.90
2018-11-03T15:00:59.203Z,6.43
2018-11-03T15:03:27.611Z,6.53
2018-11-03T15:05:56.030Z,5.67
2018-11-03T15:08:24.758Z,4.47
2018-11-03T15:10:53.200Z,5.87
2018-11-03T15:13:21.913Z,8.60
2018-11-03T15:15:50.365Z,6.73
2018-11-03T15:18:18.995Z,6.70
2018-11-03T15:20:47.595Z,7.13
2018-11-03T15:23:16.348Z,8.80
2018-11-03T15:25:44.878Z,4.50
2018-11-03T15:28:13.485Z,7.70
2018-11-03T15:30:42.231Z,5.00
2018-11-03T15:33:10.716Z,6.87
2018-11-03T15:35:39.342Z,7.03
2018-11-03T15:38:07.872Z,6.90
2018-11-03T15:40:36.582Z,7.73
2018-11-03T15:43:05.168Z,7.03
2018-11-03T15:45:33.588Z,7.20
2018-11-03T15:48:02.219Z,6.93
2018-11-03T15:50:30.877Z,5.37
2018-11-03T15:52:59.303Z,6.30
2018-11-03T15:55:27.965Z,6.93
2018-11-03T15:57:56.589Z,8.13
2018-11-03T16:00:25.076Z,7.80
2018-11-03T16:02:53.709Z,9.03
2018-11-03T16:05:22.446Z,5.57
2018-11-03T16:07:52.464Z,7.13
2018-11-03T16:10:21.077Z,7.87
2018-11-03T16:12:49.914Z,5.27
2018-11-03T16:15:18.796Z,4.63
2018-11-03T16:17:47.727Z,8.80
2018-11-03T16:20:16.398Z,5.83
2018-11-03T16:22:45.022Z,7.27
2018-11-03T16:25:13.573Z,6.67
2018-11-03T16:27:42.385Z,8.10
2018-11-03T16:30:12.301Z,8.73
2018-11-03T16:32:40.970Z,5.40
2018-11-03T16:35:09.132Z,10.60
2018-11-03T16:37:38.137Z,12.20
2018-11-03T16:40:07.168Z,15.90
2018-11-03T16:42:35.881Z,16.93
2018-11-03T16:45:05.035Z,11.70
2018-11-03T16:47:33.437Z,11.60
2018-11-03T16:50:02.069Z,12.30
2018-11-03T16:52:30.634Z,12.23
2018-11-03T16:54:58.990Z,10.00
2018-11-03T16:57:27.617Z,11.40
2018-11-03T16:59:56.152Z,9.77
2018-11-03T17:02:24.566Z,12.63
2018-11-03T17:04:52.966Z,12.53
2018-11-03T17:07:21.627Z,11.07
2018-11-03T17:09:50.337Z,12.30
2018-11-03T17:12:18.940Z,10.67
2018-11-03T17:14:47.576Z,10.30
2018-11-03T17:17:16.100Z,9.50
2018-11-03T17:19:44.726Z,8.27
2018-11-03T17:22:13.456Z,10.03
2018-11-03T17:24:42.014Z,12.87
2018-11-03T17:27:10.472Z,8.37
2018-11-03T17:29:38.869Z,9.37
2018-11-03T17:32:08.299Z,8.27
2018-11-03T17:34:36.795Z,7.87
2018-11-03T17:37:06.083Z,9.77
2018-11-03T17:39:34.678Z,11.07
2018-11-03T17:42:03.310Z,10.07
2018-11-03T17:44:31.792Z,9.10
2018-11-03T17:47:00.492Z,15.13
2018-11-03T17:49:29.042Z,10.20
2018-11-03T17:51:58.258Z,9.50
2018-11-03T17:54:27.048Z,12.27
2018-11-03T17:56:57.399Z,10.10
2018-11-03T17:59:26.292Z,12.57
2018-11-03T18:01:54.800Z,15.20
2018-11-03T18:04:23.484Z,11.57
2018-11-03T18:06:52.422Z,11.73
2018-11-03T18:09:21.080Z,12.80
2018-11-03T18:11:49.823Z,10.40
2018-11-03T18:14:19.160Z,10.17
2018-11-03T18:16:47.565Z,11.73
2018-11-03T18:19:16.040Z,9.07
2018-11-03T18:21:44.513Z,8.90
2018-11-03T18:24:12.926Z,9.40
2018-11-03T18:26:41.373Z,9.83
2018-11-03T18:29:10.025Z,9.10
2018-11-03T18:31:38.763Z,11.30
2018-11-03T18:34:07.242Z,8.53
2018-11-03T18:36:36.117Z,10.67
2018-11-03T18:39:05.943Z,11.70
2018-11-03T18:41:34.492Z,8.07
2018-11-03T18:44:02.956Z,9.97
2018-11-03T18:46:32.581Z,11.07
2018-11-03T18:49:01.052Z,10.53
2018-11-03T18:51:29.482Z,9.97
2018-11-03T18:53:58.149Z,11.53
2018-11-03T18:56:26.726Z,10.67
2018-11-03T18:58:55.180Z,12.43
2018-11-03T19:01:23.687Z,13.73
2018-11-03T19:03:52.325Z,15.73
2018-11-03T19:06:20.843Z,15.97
2018-11-03T19:08:49.287Z,13.00
2018-11-03T19:11:17.825Z,14.97
2018-11-03T19:13:46.542Z,17.23
2018-11-03T19:16:15.084Z,17.87
2018-11-03T19:18:43.772Z,17.00
2018-11-03T19:21:12.359Z,16.73
2018-11-03T19:23:41.072Z,12.83
2018-11-03T19:26:09.801Z,15.77
2018-11-03T19:28:38.340Z,12.73
2018-11-03T19:31:06.832Z,12.83
2018-11-03T19:33:35.239Z,12.37
2018-11-03T19:36:03.909Z,12.77
2018-11-03T19:38:32.537Z,13.07
2018-11-03T19:41:01.230Z,11.90
2018-11-03T19:43:29.770Z,13.07
2018-11-03T19:45:58.524Z,11.70
2018-11-03T19:48:27.038Z,14.80
2018-11-03T19:50:55.756Z,13.87
2018-11-03T19:53:24.283Z,14.43
2018-11-03T19:55:52.873Z,14.90
2018-11-03T19:58:21.587Z,13.17
2018-11-03T20:00:50.124Z,13.53
2018-11-03T20:03:19.173Z,17.47
2018-11-03T20:05:47.906Z,14.77
2018-11-03T20:08:16.614Z,13.30
2018-11-03T20:10:45.201Z,16.60
2018-11-03T20:13:13.661Z,14.73
2018-11-03T20:15:42.334Z,17.07
2018-11-03T20:18:10.890Z,20.80
2018-11-03T20:20:39.593Z,19.00
2018-11-03T20:23:08.228Z,19.07
2018-11-03T20:25:36.862Z,19.73
2018-11-03T20:28:05.486Z,18.97
2018-11-03T20:30:39.678Z,19.10
2018-11-03T20:33:08.117Z,17.60
2018-11-03T20:35:36.553Z,18.03
2018-11-03T20:38:05.328Z,16.23
2018-11-03T20:40:33.904Z,14.67
2018-11-03T20:43:02.324Z,14.00
2018-11-03T20:45:31.036Z,14.10
2018-11-03T20:47:59.854Z,12.73
2018-11-03T20:50:29.122Z,11.27
2018-11-03T20:52:57.653Z,11.67
2018-11-03T20:55:26.128Z,14.27
2018-11-03T20:57:55.640Z,13.77
2018-11-03T21:00:24.908Z,12.80
2018-11-03T21:02:53.690Z,12.30
2018-11-03T21:05:22.272Z,13.43
2018-11-03T21:07:50.736Z,14.20
2018-11-03T21:10:19.357Z,13.73
2018-11-03T21:12:48.578Z,13.87
2018-11-03T21:15:17.399Z,11.57
2018-11-03T21:17:45.849Z,11.60
2018-11-03T21:20:14.275Z,12.40
2018-11-03T21:22:42.753Z,15.47
2018-11-03T21:25:11.424Z,23.60
2018-11-03T21:27:40.191Z,25.57
2018-11-03T21:30:09.231Z,18.67
2018-11-03T21:33:08.412Z,20.67
2018-11-03T21:35:36.749Z,19.03
2018-11-03T21:38:06.193Z,22.53
2018-11-03T21:40:34.635Z,17.90
2018-11-03T21:43:03.047Z,18.33
2018-11-03T21:45:31.462Z,16.23
2018-11-03T21:48:00.216Z,17.33
2018-11-03T21:50:33.860Z,15.57
2018-11-03T21:53:03.584Z,18.97
2018-11-03T21:55:32.289Z,16.30
2018-11-03T21:58:00.783Z,14.87
2018-11-03T22:00:29.264Z,16.87
2018-11-03T22:02:58.176Z,15.77
2018-11-03T22:05:26.707Z,16.33
2018-11-03T22:07:55.119Z,15.47
2018-11-03T22:10:28.772Z,16.30
2018-11-03T22:12:58.107Z,11.20
2018-11-03T22:15:26.542Z,13.67
2018-11-03T22:17:56.216Z,15.53
2018-11-03T22:20:24.787Z,11.93
2018-11-03T22:22:53.171Z,16.23
2018-11-03T22:25:21.800Z,12.97
2018-11-03T22:27:51.394Z,11.87
2018-11-03T22:30:20.029Z,13.87
2018-11-03T22:32:48.797Z,17.97
2018-11-03T22:35:18.402Z,13.93
2018-11-03T22:37:46.908Z,11.53
2018-11-03T22:40:15.923Z,13.13
2018-11-03T22:42:44.583Z,12.10
2018-11-03T22:45:13.072Z,15.83
2018-11-03T22:47:41.737Z,14.73
2018-11-03T22:50:10.500Z,13.03
2018-11-03T22:52:39.076Z,15.93
2018-11-03T22:55:08.552Z,15.50
2018-11-03T22:57:37.599Z,16.40
2018-11-03T23:00:07.075Z,16.17
2018-11-03T23:02:35.501Z,14.60
2018-11-03T23:05:04.399Z,14.37
2018-11-03T23:07:32.912Z,14.27
2018-11-03T23:10:01.549Z,16.27
2018-11-03T23:12:31.286Z,13.83
2018-11-03T23:14:59.619Z,13.13
2018-11-03T23:17:28.241Z,13.37
2018-11-03T23:19:56.752Z,14.83
2018-11-03T23:22:35.253Z,15.50
2018-11-03T23:25:03.676Z,13.47
2018-11-03T23:27:32.120Z,15.57
2018-11-03T23:30:00.948Z,17.97
2018-11-03T23:32:34.191Z,18.20
2018-11-03T23:35:02.608Z,14.13
2018-11-03T23:37:31.032Z,13.50
2018-11-03T23:39:59.717Z,16.43
2018-11-03T23:42:29.455Z,14.97
2018-11-03T23:44:58.347Z,14.57
2018-11-03T23:47:27.085Z,14.37
2018-11-03T23:49:55.564Z,13.73
2018-11-03T23:52:29.754Z,15.73
2018-11-03T23:54:58.300Z,13.83
2018-11-03T23:57:27.073Z,15.77
2018-11-03T23:59:55.920Z,15.53
